Flight Track Log - Related Links

Times and Time Zones

All times are in EDT time to prevent confusion due to time zone crossing. See the ASQ5941 flight status page for this flight to view local times or setup timezone preferences in your user account.

Time Position Orientation Groundspeed Altitude Reporting Facility
EDT Latitude Longitude Course Direction KTS MPH feet Rate Location/Type
Sun 03:12:39 PM 42.0167 -87.8833 80° East 167 192 1,800  Level Chicago TRACON
Sun 03:13:40 PM 42.0333 -87.8000 75° East 226 260 3,200 1,339 Climbing Chicago TRACON
Sun 03:14:40 PM 42.0667 -87.7167 62° Northeast 288 331 4,500 1,842 Climbing Chicago TRACON
Sun 03:15:34 PM 42.0667 -87.6167 90° East 296 341 6,700 1,890 Climbing Chicago TRACON
Sun 03:17:00 PM 42.0909 -87.1046 77° East  Level FlightAware Approximate
Sun 03:18:00 PM 42.1072 -86.9426 80° East  Level FlightAware Approximate
Sun 03:18:00 PM 42.0894 -87.3600 83° East 309 356 10,800  Level Chicago Center
Sun 03:19:02 PM 42.1017 -87.2033 84° East 347 399 12,600 1,268 Climbing Chicago Center
Sun 03:20:03 PM 42.1122 -87.0658 84° East 367 422 13,400 780 Climbing Chicago Center
Sun 03:21:05 PM 42.1169 -86.9144 88° East 402 463 14,200 871 Climbing Chicago Center
Sun 03:22:07 PM 42.1231 -86.7608 87° East 411 473 15,200 1,113 Climbing Chicago Center
Sun 03:23:09 PM 42.1292 -86.6150 87° East 413 475 16,500 1,415 Climbing Chicago Center
Sun 03:24:10 PM 42.1350 -86.4319 87° East 408 470 18,100 1,366 Climbing Chicago Center
Sun 03:25:12 PM 42.1386 -86.2819 88° East 403 464 19,300 1,210 Climbing Chicago Center
Sun 03:26:14 PM 42.1436 -86.1294 87° East 405 466 20,600 1,258 Climbing Chicago Center
Sun 03:27:16 PM 42.1436 -85.9753 90° East 410 472 21,900 1,258 Climbing Chicago Center
Sun 03:28:18 PM 42.1414 -85.8050 91° East 409 471 23,200 1,122 Climbing Chicago Center
Sun 03:29:19 PM 42.1400 -85.6506 91° East 415 478 24,200 1,024 Climbing Chicago Center
Sun 03:30:21 PM 42.1378 -85.4956 91° East 416 479 25,300 1,016 Climbing Chicago Center
Sun 03:31:23 PM 42.1364 -85.3397 91° East 418 481 26,300 907 Climbing Chicago Center
Sun 03:31:47 PM 42.1392 -85.2769 87° East 421 484 26,600 1,000 Climbing Cleveland Center
Sun 03:32:47 PM 42.1350 -85.1197 92° East 421 484 27,700 1,100 Climbing Cleveland Center
Sun 03:33:47 PM 42.1328 -84.9600 91° East 421 484 28,800 1,050 Climbing Cleveland Center
Sun 03:34:47 PM 42.1283 -84.8056 92° East 423 487 29,800 1,000 Climbing Cleveland Center
Sun 03:35:47 PM 42.1297 -84.6517 89° East 412 474 30,800 600 Climbing Cleveland Center
Sun 03:36:47 PM 42.1250 -84.4889 92° East 419 482 31,000 100 Climbing Cleveland Center
Sun 03:37:47 PM 42.1394 -84.3022 84° East 432 497 31,000  Level Cleveland Center
Sun 03:38:47 PM 42.1781 -84.1333 73° East 460 529 31,000  Level Cleveland Center
Sun 03:39:47 PM 42.2250 -83.9622 70° East 467 537 31,000  Level Cleveland Center
Sun 03:40:47 PM 42.2300 -83.7831 88° East 472 543 31,000  Level Cleveland Center
Sun 03:41:47 PM 42.2222 -83.6086 93° East 472 543 31,000  Level Cleveland Center
Sun 03:42:47 PM 42.2139 -83.4456 94° East 479 551 31,000  Level Cleveland Center
Sun 03:43:47 PM 42.2100 -83.2633 92° East 480 552 31,000  Level Cleveland Center
Sun 03:44:47 PM 42.2017 -83.0833 94° East 480 552 31,000  Level Cleveland Center
Sun 03:45:47 PM 42.1928 -82.9036 94° East 485 558 31,000  Level Cleveland Center
Sun 03:46:47 PM 42.1861 -82.7214 93° East 485 558 31,000  Level Cleveland Center
Sun 03:47:47 PM 42.1789 -82.5389 93° East 479 551 31,000  Level Cleveland Center
Sun 03:48:47 PM 42.1672 -82.3536 95° East 485 558 31,000  Level Cleveland Center
Sun 03:49:47 PM 42.1594 -82.1658 93° East 490 564 31,000  Level Cleveland Center
Sun 03:50:47 PM 42.1497 -81.9611 94° East 497 572 31,000  Level Cleveland Center
Sun 03:51:47 PM 42.1414 -81.7761 93° East 497 572 31,000  Level Cleveland Center
Sun 03:52:47 PM 42.1306 -81.5883 94° East 497 572 31,000  Level Cleveland Center
Sun 03:53:47 PM 42.1217 -81.4006 94° East 502 578 31,000  Level Cleveland Center
Sun 03:54:47 PM 42.1083 -81.2128 95° East 502 578 31,000  Level Cleveland Center
Sun 03:55:47 PM 42.0989 -81.0253 94° East 495 570 31,000  Level Cleveland Center
Sun 03:56:47 PM 42.0867 -80.8575 96° East 500 575 31,000  Level Cleveland Center
Sun 03:57:47 PM 42.0767 -80.6700 94° East 501 577 31,000  Level Cleveland Center
Sun 03:58:47 PM 42.0642 -80.4853 95° East 496 571 31,000  Level Cleveland Center
Sun 03:59:47 PM 42.0533 -80.3008 94° East 501 577 31,000  Level Cleveland Center
Sun 04:00:47 PM 42.0425 -80.1106 94° East 506 582 31,000  Level Cleveland Center
Sun 04:01:47 PM 42.0267 -79.9094 96° East 499 574 31,000  Level Cleveland Center
Sun 04:02:47 PM 42.0131 -79.7253 96° East 503 579 31,000  Level Cleveland Center
Sun 04:03:47 PM 42.0011 -79.5353 95° East 503 579 31,000  Level Cleveland Center
Sun 04:04:47 PM 41.9867 -79.3483 96° East 503 579 31,000 -300 Level Cleveland Center
Sun 04:05:47 PM 41.9719 -79.1617 96° East 503 579 30,400 -950 Descending Cleveland Center
Sun 04:06:47 PM 41.9569 -78.9719 96° East 503 579 29,100 -1,400 Descending Cleveland Center
Sun 04:07:47 PM 41.9314 -78.7856 100° East 503 579 27,600 -1,500 Descending Cleveland Center
Sun 04:08:47 PM 41.9072 -78.5911 99° East 508 585 26,100 -1,500 Descending Cleveland Center
Sun 04:09:47 PM 41.8808 -78.3967 100° East 519 597 24,600 -1,500 Descending Cleveland Center
Sun 04:10:47 PM 41.8564 -78.2108 100° East 519 597 23,100 -800 Descending Cleveland Center
Sun 04:11:47 PM 41.8317 -78.0306 100° East 514 592 23,000 -41 Descending Cleveland Center
Sun 04:13:12 PM 41.7956 -77.7850 101° East 479 551 23,000  Level New York Center
Sun 04:14:12 PM 41.7708 -77.6017 100° East 484 557 23,000  Level New York Center
Sun 04:15:10 PM 41.7456 -77.4211 101° East 489 563 23,000  Level New York Center
Sun 04:16:11 PM 41.7161 -77.2375 102° East 494 568 23,000 -98 Level New York Center
Sun 04:17:12 PM 41.6906 -77.0544 101° East 494 568 22,800 -934 Descending New York Center
Sun 04:18:13 PM 41.6644 -76.8769 101° East 494 568 21,100 -2,085 Descending New York Center
Sun 04:19:10 PM 41.6442 -76.7392 101° East 488 562 18,700 -2,874 Descending New York Center
Sun 04:20:12 PM 41.6161 -76.5533 101° East 471 542 15,400 -2,976 Descending New York Center
Sun 04:21:13 PM 41.5908 -76.3847 101° East 432 497 12,600 -2,521 Descending New York Center
Sun 04:22:11 PM 41.5719 -76.2528 101° East 380 437 10,400 -2,186 Descending New York Center
Sun 04:23:11 PM 41.5464 -76.1289 105° East 355 409 8,300 -1,736 Descending New York Center
Sun 04:24:12 PM 41.4956 -76.0528 132° Southeast 313 360 6,900 -1,426 Descending New York Center
Sun 04:25:13 PM 41.4422 -75.9903 139° Southeast 287 330 5,400 -1,373 Descending New York Center
Sun 04:26:10 PM 41.3881 -75.9392 145° Southeast 259 298 4,200 -712 Descending New York Center
Sun 04:27:11 PM 41.3361 -75.8908 145° Southeast 241 277 4,000 -149 Descending New York Center
Sun 04:28:11 PM 41.2858 -75.8458 146° Southeast 231 266 3,900 -397 Descending New York Center
Sun 04:29:12 PM 41.2525 -75.7964 132° Southeast 204 235 3,200 -689 Descending New York Center

Login

Don't have an account? Register now (free) for customized features, flight alerts, and more!